Larue, Mississippi
Current Conditions -  °F | °C
As of 1:58 PM on Monday 22 Dec 2014 (Local Time) from KBIX Reporting Station
Overcast Overcast  
Wind Chill: 66°   Ceiling: 400
Heat Index: 66°   Visibility: 7mi
Dew Point: 66°   Wind: 7mph
Humidity: 100%   Direction: 170°S
Pressure: 29.75"   Gusts: NA
Location:  30.418°N, 88.7558°W
Report Text: KBIX 221958Z AUTO 17006KT 7SM OVC004 19/19 A2975 RMK AO2 RAB1906E1915 SLP077 P0000 T01890189
Loading
Personal Weather Stations






























Interactive Weather Map New forecast layout! Learn more

10-Day Weather Forecast

Advertisements
Track Severe Weather on mobile